createdAt,value
2017-10-02T00:00:12.707Z,19.17
2017-10-02T00:02:40.037Z,21.87
2017-10-02T00:05:06.454Z,24.47
2017-10-02T00:07:32.902Z,16.70
2017-10-02T00:09:59.306Z,18.03
2017-10-02T00:12:25.763Z,19.83
2017-10-02T00:14:53.682Z,23.47
2017-10-02T00:17:20.099Z,20.03
2017-10-02T00:19:46.562Z,23.40
2017-10-02T00:22:12.974Z,22.63
2017-10-02T00:24:39.412Z,17.33
2017-10-02T00:27:06.049Z,17.03
2017-10-02T00:29:32.549Z,17.70
2017-10-02T00:31:59.707Z,19.00
2017-10-02T00:34:27.044Z,21.37
2017-10-02T00:36:54.398Z,18.00
2017-10-02T00:39:20.838Z,19.90
2017-10-02T00:41:48.019Z,16.67
2017-10-02T00:44:14.450Z,27.87
2017-10-02T00:46:40.903Z,22.50
2017-10-02T00:49:07.337Z,23.57
2017-10-02T00:51:33.793Z,18.37
2017-10-02T00:54:00.315Z,20.00
2017-10-02T00:56:26.839Z,23.43
2017-10-02T00:58:53.279Z,20.20
2017-10-02T01:01:19.726Z,28.00
2017-10-02T01:03:46.176Z,23.17
2017-10-02T01:06:12.607Z,16.60
2017-10-02T01:08:39.071Z,20.83
2017-10-02T01:11:06.386Z,20.67
2017-10-02T01:13:32.825Z,19.50
2017-10-02T01:16:00.758Z,21.67
2017-10-02T01:18:27.189Z,14.17
2017-10-02T01:20:53.710Z,18.00
2017-10-02T01:23:20.122Z,20.23
2017-10-02T01:25:46.551Z,24.60
2017-10-02T01:28:13.758Z,20.43
2017-10-02T01:30:40.211Z,19.43
2017-10-02T01:33:06.730Z,23.40
2017-10-02T01:35:33.190Z,23.67
2017-10-02T01:38:00.447Z,26.77
2017-10-02T01:40:27.651Z,24.10
2017-10-02T01:42:54.082Z,23.07
2017-10-02T01:45:20.518Z,20.83
2017-10-02T01:47:46.950Z,22.00
2017-10-02T01:50:13.386Z,20.20
2017-10-02T01:52:39.859Z,20.03
2017-10-02T01:55:07.043Z,19.90
2017-10-02T01:57:33.526Z,18.13
2017-10-02T01:59:59.930Z,16.83
2017-10-02T02:02:26.339Z,17.87
2017-10-02T02:04:52.811Z,16.13
2017-10-02T02:07:19.263Z,16.53
2017-10-02T02:09:45.699Z,11.80
2017-10-02T02:12:12.150Z,17.97
2017-10-02T02:14:38.600Z,19.00
2017-10-02T02:17:05.115Z,17.67
2017-10-02T02:19:31.568Z,22.00
2017-10-02T02:21:58.009Z,16.67
2017-10-02T02:24:24.574Z,20.13
2017-10-02T02:26:51.010Z,17.47
2017-10-02T02:29:17.425Z,18.80
2017-10-02T02:31:43.855Z,16.00
2017-10-02T02:34:10.274Z,17.20
2017-10-02T02:36:36.727Z,16.62
2017-10-02T02:39:03.147Z,14.47
2017-10-02T02:41:29.642Z,12.43
2017-10-02T02:43:56.823Z,11.93
2017-10-02T02:46:23.253Z,11.77
2017-10-02T02:48:49.680Z,12.30
2017-10-02T02:51:16.117Z,7.23
2017-10-02T02:53:42.582Z,12.90
2017-10-02T02:56:09.000Z,13.17
2017-10-02T02:58:35.415Z,14.57
2017-10-02T03:01:01.846Z,13.30
2017-10-02T03:03:28.302Z,14.60
2017-10-02T03:05:54.786Z,15.60
2017-10-02T03:08:21.963Z,17.00
2017-10-02T03:10:48.425Z,15.50
2017-10-02T03:13:14.850Z,14.83
2017-10-02T03:15:41.278Z,15.00
2017-10-02T03:18:07.715Z,16.83
2017-10-02T03:20:34.157Z,15.40
2017-10-02T03:23:00.702Z,16.37
2017-10-02T03:25:27.231Z,14.80
2017-10-02T03:27:53.851Z,15.00
2017-10-02T03:30:20.433Z,16.20
2017-10-02T03:32:46.853Z,16.50
2017-10-02T03:35:14.743Z,16.47
2017-10-02T03:37:41.919Z,16.97
2017-10-02T03:40:08.475Z,19.00
2017-10-02T03:42:34.926Z,16.30
2017-10-02T03:45:01.362Z,15.80
2017-10-02T03:47:28.699Z,16.52
2017-10-02T03:49:55.204Z,14.48
2017-10-02T03:52:21.637Z,16.80
2017-10-02T03:54:48.080Z,15.43
2017-10-02T03:57:14.535Z,14.87
2017-10-02T03:59:40.947Z,16.73
2017-10-02T04:02:07.394Z,18.13
2017-10-02T04:04:33.842Z,16.25
2017-10-02T04:07:00.291Z,18.10
2017-10-02T04:09:26.758Z,15.47
2017-10-02T04:11:53.206Z,17.83
2017-10-02T04:14:19.650Z,15.68
2017-10-02T04:16:46.099Z,16.92
2017-10-02T04:19:12.542Z,14.10
2017-10-02T04:21:38.917Z,14.63
2017-10-02T04:24:05.391Z,16.05
2017-10-02T04:26:31.906Z,16.03
2017-10-02T04:28:58.410Z,12.40
2017-10-02T04:31:25.598Z,13.53
2017-10-02T04:33:52.066Z,15.07
2017-10-02T04:36:18.554Z,16.07
2017-10-02T04:38:44.927Z,14.80
2017-10-02T04:41:11.378Z,12.50
2017-10-02T04:43:37.799Z,11.43
2017-10-02T04:46:04.279Z,12.90
2017-10-02T04:48:30.690Z,14.17
2017-10-02T04:50:57.916Z,9.27
2017-10-02T04:53:24.358Z,12.43
2017-10-02T04:55:50.819Z,14.63
2017-10-02T04:58:17.298Z,14.00
2017-10-02T05:00:43.775Z,11.47
2017-10-02T05:03:10.978Z,14.80
2017-10-02T05:05:37.403Z,17.00
2017-10-02T05:08:03.862Z,12.83
2017-10-02T05:10:30.292Z,14.50
2017-10-02T05:12:56.781Z,14.07
2017-10-02T05:15:23.227Z,14.80
2017-10-02T05:17:49.647Z,14.93
2017-10-02T05:20:16.244Z,12.83
2017-10-02T05:22:43.399Z,15.17
2017-10-02T05:25:10.594Z,14.67
2017-10-02T05:27:37.051Z,13.93
2017-10-02T05:30:03.504Z,21.50
2017-10-02T05:32:29.946Z,22.42
2017-10-02T05:34:57.104Z,16.10
2017-10-02T05:37:24.336Z,13.60
2017-10-02T05:39:50.776Z,13.70
2017-10-02T05:42:17.235Z,13.23
2017-10-02T05:44:43.695Z,17.90
2017-10-02T05:47:10.143Z,13.40
2017-10-02T05:49:36.694Z,10.60
2017-10-02T05:52:03.157Z,9.03
2017-10-02T05:54:30.341Z,6.87
2017-10-02T05:56:56.826Z,7.37
2017-10-02T05:59:23.431Z,6.00
2017-10-02T06:01:49.873Z,9.23
2017-10-02T06:04:16.424Z,6.10
2017-10-02T06:06:43.582Z,5.33
2017-10-02T06:09:10.186Z,4.70
2017-10-02T06:11:36.666Z,7.33
2017-10-02T06:14:04.150Z,5.97
2017-10-02T06:16:30.614Z,5.73
2017-10-02T06:18:57.042Z,5.57
2017-10-02T06:21:23.512Z,5.20
2017-10-02T06:23:49.915Z,5.40
2017-10-02T06:26:16.387Z,5.73
2017-10-02T06:28:44.486Z,5.47
2017-10-02T06:31:10.917Z,4.70
2017-10-02T06:33:37.359Z,4.50
2017-10-02T06:36:03.797Z,4.03
2017-10-02T06:38:30.278Z,4.53
2017-10-02T06:40:56.870Z,4.60
2017-10-02T06:43:23.299Z,3.90
2017-10-02T06:45:49.755Z,4.40
2017-10-02T06:48:16.170Z,3.60
2017-10-02T06:50:42.634Z,4.30
2017-10-02T06:53:09.092Z,4.87
2017-10-02T06:55:36.420Z,3.90
2017-10-02T06:58:02.835Z,5.07
2017-10-02T07:00:29.285Z,4.60
2017-10-02T07:02:57.215Z,4.53
2017-10-02T07:05:23.704Z,3.87
2017-10-02T07:07:50.965Z,4.07
2017-10-02T07:10:18.122Z,4.47
2017-10-02T07:12:45.316Z,4.23
2017-10-02T07:15:11.759Z,3.90
2017-10-02T07:17:38.215Z,4.40
2017-10-02T07:20:04.786Z,4.20
2017-10-02T07:22:31.238Z,4.53
2017-10-02T07:24:57.714Z,4.97
2017-10-02T07:27:25.624Z,4.50
2017-10-02T07:29:52.098Z,4.47
2017-10-02T07:32:18.539Z,5.37
2017-10-02T07:34:44.990Z,5.17
2017-10-02T07:37:12.201Z,4.50
2017-10-02T07:39:38.796Z,3.73
2017-10-02T07:42:05.965Z,4.43
2017-10-02T07:44:32.436Z,5.30
2017-10-02T07:46:58.859Z,4.10
2017-10-02T07:49:25.282Z,5.13
2017-10-02T07:51:51.859Z,4.87
2017-10-02T07:54:19.017Z,5.67
2017-10-02T07:56:46.430Z,5.40
2017-10-02T07:59:12.915Z,5.63
2017-10-02T08:01:40.063Z,5.03
2017-10-02T08:04:07.215Z,5.47
2017-10-02T08:06:34.494Z,5.57
2017-10-02T08:09:00.979Z,5.57
2017-10-02T08:11:28.295Z,5.27
2017-10-02T08:13:54.802Z,6.03
2017-10-02T08:16:21.238Z,5.30
2017-10-02T08:18:47.646Z,6.93
2017-10-02T08:21:14.834Z,5.13
2017-10-02T08:23:41.287Z,5.20
2017-10-02T08:26:07.727Z,5.70
2017-10-02T08:28:34.241Z,5.13
2017-10-02T08:31:00.680Z,7.80
2017-10-02T08:33:27.152Z,5.10
2017-10-02T08:35:54.332Z,6.57
2017-10-02T08:38:20.778Z,6.80
2017-10-02T08:40:47.447Z,6.43
2017-10-02T08:43:13.898Z,6.40
2017-10-02T08:45:40.331Z,6.93
2017-10-02T08:48:06.854Z,6.83
2017-10-02T08:50:33.274Z,8.23
2017-10-02T08:52:59.742Z,7.80
2017-10-02T08:55:26.964Z,6.57
2017-10-02T08:57:53.542Z,6.27
2017-10-02T09:00:20.771Z,7.60
2017-10-02T09:02:48.678Z,5.80
2017-10-02T09:05:15.083Z,10.07
2017-10-02T09:07:42.275Z,6.23
2017-10-02T09:10:08.723Z,9.23
2017-10-02T09:12:35.135Z,6.67
2017-10-02T09:15:01.602Z,6.30
2017-10-02T09:17:28.054Z,7.70
2017-10-02T09:19:54.475Z,7.83
2017-10-02T09:22:20.955Z,6.83
2017-10-02T09:24:47.431Z,6.90
2017-10-02T09:27:13.914Z,6.40
2017-10-02T09:29:40.418Z,13.17
2017-10-02T09:32:07.714Z,7.30
2017-10-02T09:34:34.130Z,7.77
2017-10-02T09:37:01.290Z,7.30
2017-10-02T09:39:27.740Z,8.00
2017-10-02T09:41:54.186Z,8.37
2017-10-02T09:44:20.703Z,8.37
2017-10-02T09:46:47.156Z,7.20
2017-10-02T09:49:13.598Z,6.60
2017-10-02T09:51:40.043Z,7.20
2017-10-02T09:54:06.532Z,7.70
2017-10-02T09:56:32.962Z,7.80
2017-10-02T09:58:59.393Z,7.43
2017-10-02T10:01:25.831Z,7.37
2017-10-02T10:06:41.199Z,6.00
2017-10-02T10:09:08.368Z,8.30
2017-10-02T10:11:34.898Z,7.50
2017-10-02T10:14:01.376Z,7.57
2017-10-02T10:16:27.835Z,5.17
2017-10-02T10:18:55.025Z,6.43
2017-10-02T10:21:21.516Z,6.30
2017-10-02T10:23:47.986Z,5.13
2017-10-02T10:26:14.624Z,5.63
2017-10-02T10:28:41.120Z,5.17
2017-10-02T10:31:07.545Z,5.67
2017-10-02T10:33:34.110Z,6.63
2017-10-02T10:36:01.351Z,4.50
2017-10-02T10:38:28.592Z,4.70
2017-10-02T10:40:55.110Z,6.97
2017-10-02T10:43:21.587Z,7.53
2017-10-02T10:45:48.004Z,4.97
2017-10-02T10:48:15.195Z,5.53
2017-10-02T10:50:41.714Z,4.90
2017-10-02T10:53:08.249Z,4.43
2017-10-02T10:55:34.769Z,4.43
2017-10-02T10:58:01.943Z,4.87
2017-10-02T11:00:28.468Z,4.73
2017-10-02T11:02:54.910Z,4.40
2017-10-02T11:05:21.361Z,4.03
2017-10-02T11:07:47.793Z,9.93
2017-10-02T11:10:14.343Z,4.20
2017-10-02T11:12:40.895Z,4.20
2017-10-02T11:15:07.352Z,4.63
2017-10-02T11:17:33.835Z,4.93
2017-10-02T11:20:00.252Z,3.70
2017-10-02T11:22:26.734Z,3.90
2017-10-02T11:24:53.178Z,4.07
2017-10-02T11:27:20.418Z,4.00
2017-10-02T11:29:46.895Z,4.50
2017-10-02T11:32:13.391Z,3.80
2017-10-02T11:34:40.699Z,4.63
2017-10-02T11:37:07.202Z,3.90
2017-10-02T11:39:33.637Z,4.17
2017-10-02T11:42:00.047Z,4.80
2017-10-02T11:44:27.255Z,3.90
2017-10-02T11:46:53.714Z,4.20
2017-10-02T11:49:20.133Z,4.47
2017-10-02T11:51:46.643Z,4.53
2017-10-02T11:54:13.131Z,4.87
2017-10-02T11:56:40.342Z,4.40
2017-10-02T11:59:06.803Z,4.80
2017-10-02T12:01:33.354Z,3.97
2017-10-02T12:04:00.571Z,4.70
2017-10-02T12:06:27.782Z,4.10
2017-10-02T12:08:54.224Z,4.20
2017-10-02T12:11:20.658Z,5.23
2017-10-02T12:13:47.231Z,3.57
2017-10-02T12:16:15.200Z,5.13
2017-10-02T12:18:42.456Z,8.13
2017-10-02T12:21:08.965Z,3.80
2017-10-02T12:23:35.445Z,4.33
2017-10-02T12:26:02.648Z,4.30
2017-10-02T12:28:29.162Z,4.83
2017-10-02T12:30:55.662Z,5.27
2017-10-02T12:33:23.008Z,3.73
2017-10-02T12:35:49.517Z,4.10
2017-10-02T12:38:15.930Z,3.80
2017-10-02T12:40:42.336Z,2.93
2017-10-02T12:43:08.806Z,3.47
2017-10-02T12:45:35.206Z,3.43
2017-10-02T12:48:01.647Z,3.70
2017-10-02T12:50:28.102Z,4.80
2017-10-02T12:52:54.613Z,3.30
2017-10-02T12:55:21.144Z,3.17
2017-10-02T12:57:47.574Z,3.90
2017-10-02T13:00:14.004Z,3.17
2017-10-02T13:02:40.536Z,3.50
2017-10-02T13:05:06.964Z,4.03
2017-10-02T13:07:33.435Z,3.20
2017-10-02T13:09:59.927Z,3.33
2017-10-02T13:12:26.360Z,2.90
2017-10-02T13:14:52.969Z,3.23
2017-10-02T13:17:19.445Z,3.00
2017-10-02T13:19:45.876Z,2.77
2017-10-02T13:22:12.410Z,2.90
2017-10-02T13:24:38.863Z,3.20
2017-10-02T13:27:05.313Z,5.30
2017-10-02T13:29:31.790Z,3.00
2017-10-02T13:31:59.595Z,3.20
2017-10-02T13:34:26.267Z,3.30
2017-10-02T13:36:53.879Z,3.63
2017-10-02T13:39:20.306Z,3.30
2017-10-02T13:41:46.733Z,7.03
2017-10-02T13:44:13.186Z,3.47
2017-10-02T13:46:39.603Z,3.07
2017-10-02T13:49:06.198Z,2.97
2017-10-02T13:51:32.694Z,2.97
2017-10-02T13:53:59.145Z,3.33
2017-10-02T13:56:25.611Z,4.20
2017-10-02T13:58:52.821Z,2.70
2017-10-02T14:01:19.300Z,3.47
2017-10-02T14:03:46.559Z,3.47
2017-10-02T14:06:13.798Z,4.50
2017-10-02T14:08:41.007Z,3.10
2017-10-02T14:11:07.448Z,3.30
2017-10-02T14:13:33.923Z,4.10
2017-10-02T14:16:01.098Z,2.80
2017-10-02T14:18:27.594Z,5.00
2017-10-02T14:20:54.787Z,3.57
2017-10-02T14:23:21.383Z,4.03
2017-10-02T14:25:48.591Z,3.93
2017-10-02T14:28:15.039Z,3.67
2017-10-02T14:30:41.506Z,3.63
2017-10-02T14:33:08.694Z,4.50
2017-10-02T14:35:35.111Z,3.70
2017-10-02T14:38:01.639Z,3.90
2017-10-02T14:40:28.088Z,5.10
2017-10-02T14:45:43.532Z,3.83
2017-10-02T14:48:10.092Z,4.47
2017-10-02T14:50:36.644Z,5.77
2017-10-02T14:53:03.259Z,3.90
2017-10-02T14:55:30.438Z,3.93
2017-10-02T14:57:56.903Z,3.90
2017-10-02T15:00:23.343Z,4.57
2017-10-02T15:02:49.755Z,3.80
2017-10-02T15:05:16.279Z,4.00
2017-10-02T15:07:43.055Z,4.73
2017-10-02T15:10:09.515Z,4.67
2017-10-02T15:12:36.695Z,4.57
2017-10-02T15:15:03.154Z,5.23
2017-10-02T15:17:29.582Z,5.23
2017-10-02T15:19:56.024Z,7.47
2017-10-02T15:22:22.538Z,4.93
2017-10-02T15:24:48.992Z,5.50
2017-10-02T15:27:15.450Z,5.70
2017-10-02T15:29:41.907Z,5.97
2017-10-02T15:32:09.178Z,5.53
2017-10-02T15:34:36.261Z,7.60
2017-10-02T15:37:02.744Z,6.00
2017-10-02T15:39:29.206Z,6.13
2017-10-02T15:41:55.647Z,7.23
2017-10-02T15:44:22.099Z,6.90
2017-10-02T15:46:48.550Z,6.80
2017-10-02T15:49:16.637Z,7.30
2017-10-02T15:51:43.894Z,8.80
2017-10-02T15:54:11.108Z,8.07
2017-10-02T15:56:37.612Z,7.63
2017-10-02T15:59:04.131Z,7.90
2017-10-02T16:01:30.633Z,8.37
2017-10-02T16:03:57.822Z,8.37
2017-10-02T16:06:24.397Z,7.60
2017-10-02T16:08:50.884Z,6.43
2017-10-02T16:11:17.399Z,6.87
2017-10-02T16:13:44.569Z,8.40
2017-10-02T16:16:11.035Z,8.70
2017-10-02T16:18:37.459Z,6.20
2017-10-02T16:21:03.967Z,6.17
2017-10-02T16:23:30.426Z,6.30
2017-10-02T16:25:56.939Z,5.70
2017-10-02T16:28:23.505Z,7.30
2017-10-02T16:30:49.932Z,8.50
2017-10-02T16:33:16.415Z,3.90
2017-10-02T16:35:43.622Z,4.33
2017-10-02T16:38:10.067Z,3.73
2017-10-02T16:40:36.582Z,3.07
2017-10-02T16:43:03.052Z,2.27
2017-10-02T16:45:29.514Z,2.37
2017-10-02T16:47:55.958Z,2.50
2017-10-02T16:50:22.420Z,2.20
2017-10-02T16:52:48.924Z,1.90
2017-10-02T16:55:15.634Z,6.57
2017-10-02T16:57:42.879Z,2.77
2017-10-02T17:00:10.107Z,2.17
2017-10-02T17:02:36.527Z,3.47
2017-10-02T17:05:03.030Z,3.00
2017-10-02T17:07:29.465Z,2.70
2017-10-02T17:09:55.928Z,2.83
2017-10-02T17:12:22.358Z,3.63
2017-10-02T17:14:48.880Z,4.90
2017-10-02T17:17:15.315Z,3.20
2017-10-02T17:19:41.795Z,3.90
2017-10-02T17:22:08.228Z,4.00
2017-10-02T17:24:34.735Z,3.53
2017-10-02T17:27:01.219Z,2.67
2017-10-02T17:29:28.460Z,4.97
2017-10-02T17:31:55.668Z,2.60
2017-10-02T17:34:22.136Z,3.00
2017-10-02T17:36:49.429Z,2.97
2017-10-02T17:39:15.984Z,2.97
2017-10-02T17:41:42.501Z,2.97
2017-10-02T17:44:09.101Z,2.70
2017-10-02T17:46:36.366Z,3.30
2017-10-02T17:49:03.635Z,3.80
2017-10-02T17:51:30.152Z,3.73
2017-10-02T17:53:56.603Z,3.97
2017-10-02T17:56:23.107Z,4.43
2017-10-02T17:58:50.490Z,4.90
2017-10-02T18:01:17.087Z,4.33
2017-10-02T18:03:43.539Z,3.93
2017-10-02T18:06:10.729Z,4.40
2017-10-02T18:08:37.256Z,6.20
2017-10-02T18:11:03.695Z,4.90
2017-10-02T18:13:30.202Z,4.10
2017-10-02T18:15:56.666Z,4.57
2017-10-02T18:18:23.127Z,4.40
2017-10-02T18:20:49.600Z,4.50
2017-10-02T18:23:16.079Z,2.63
2017-10-02T18:25:42.591Z,3.50
2017-10-02T18:28:09.348Z,3.60
2017-10-02T18:30:36.164Z,4.77
2017-10-02T18:33:02.646Z,5.50
2017-10-02T18:35:30.587Z,5.53
2017-10-02T18:37:57.142Z,3.20
2017-10-02T18:40:23.640Z,3.13
2017-10-02T18:42:50.086Z,4.60
2017-10-02T18:45:17.846Z,3.70
2017-10-02T18:47:44.331Z,3.90
2017-10-02T18:50:11.564Z,4.97
2017-10-02T18:52:38.099Z,6.13
2017-10-02T18:55:04.558Z,11.63
2017-10-02T18:57:31.811Z,10.67
2017-10-02T18:59:59.024Z,4.10
2017-10-02T19:02:25.486Z,3.47
2017-10-02T19:04:52.675Z,2.90
2017-10-02T19:07:19.149Z,3.33
2017-10-02T19:09:46.617Z,3.27
2017-10-02T19:12:14.560Z,2.17
2017-10-02T19:14:41.060Z,2.47
2017-10-02T19:17:07.541Z,2.53
2017-10-02T19:19:34.071Z,3.47
2017-10-02T19:22:01.451Z,2.53
2017-10-02T19:24:28.678Z,2.93
2017-10-02T19:26:55.105Z,3.43
2017-10-02T19:29:21.623Z,5.10
2017-10-02T19:31:48.208Z,4.37
2017-10-02T19:34:15.421Z,3.67
2017-10-02T19:36:41.958Z,4.40
2017-10-02T19:39:08.441Z,3.43
2017-10-02T19:41:34.969Z,3.63
2017-10-02T19:44:01.498Z,3.20
2017-10-02T19:46:28.879Z,4.57
2017-10-02T19:48:55.315Z,5.23
2017-10-02T19:51:21.887Z,4.50
2017-10-02T19:53:48.372Z,4.87
2017-10-02T19:56:14.861Z,5.17
2017-10-02T19:58:41.358Z,4.50
2017-10-02T20:01:07.895Z,10.20
2017-10-02T20:03:34.421Z,20.53
2017-10-02T20:06:00.890Z,6.20
2017-10-02T20:08:27.511Z,7.77
2017-10-02T20:10:53.961Z,5.80
2017-10-02T20:13:20.579Z,4.60
2017-10-02T20:15:47.264Z,4.90
2017-10-02T20:18:14.466Z,8.10
2017-10-02T20:20:40.999Z,5.30
2017-10-02T20:23:07.589Z,5.97
2017-10-02T20:25:34.844Z,5.23
2017-10-02T20:28:02.100Z,3.90
2017-10-02T20:30:29.297Z,4.43
2017-10-02T20:32:55.799Z,4.47
2017-10-02T20:35:22.351Z,4.50
2017-10-02T20:37:48.977Z,4.50
2017-10-02T20:40:15.399Z,3.80
2017-10-02T20:42:41.970Z,3.27
2017-10-02T20:45:08.623Z,3.23
2017-10-02T20:47:35.055Z,3.97
2017-10-02T20:50:01.521Z,4.43
2017-10-02T20:52:28.794Z,3.07
2017-10-02T20:54:55.476Z,2.20
2017-10-02T20:57:21.951Z,3.43
2017-10-02T20:59:49.333Z,3.10
2017-10-02T21:02:15.777Z,3.13
2017-10-02T21:04:42.207Z,3.00
2017-10-02T21:09:58.904Z,2.10
2017-10-02T21:12:25.355Z,2.87
2017-10-02T21:14:51.807Z,2.60
2017-10-02T21:17:18.246Z,2.97
2017-10-02T21:19:44.728Z,3.57
2017-10-02T21:22:11.959Z,2.30
2017-10-02T21:24:38.429Z,3.50
2017-10-02T21:27:04.942Z,8.00
2017-10-02T21:29:32.156Z,2.77
2017-10-02T21:31:58.760Z,2.90
2017-10-02T21:34:25.249Z,3.20
2017-10-02T21:36:51.691Z,2.93
2017-10-02T21:39:18.178Z,1.60
2017-10-02T21:41:44.625Z,3.60
2017-10-02T21:44:11.117Z,2.80
2017-10-02T21:46:37.564Z,2.90
2017-10-02T21:49:04.067Z,2.97
2017-10-02T21:51:31.310Z,2.20
2017-10-02T21:53:57.756Z,1.77
2017-10-02T21:56:24.952Z,1.90
2017-10-02T21:58:51.424Z,2.20
2017-10-02T22:01:18.605Z,1.70
2017-10-02T22:03:45.118Z,2.57
2017-10-02T22:06:12.359Z,3.77
2017-10-02T22:08:38.799Z,2.90
2017-10-02T22:11:06.029Z,3.33
2017-10-02T22:13:32.451Z,6.10
2017-10-02T22:15:58.918Z,3.07
2017-10-02T22:18:26.136Z,3.60
2017-10-02T22:20:52.608Z,3.10
2017-10-02T22:23:19.782Z,6.60
2017-10-02T22:25:46.242Z,2.93
2017-10-02T22:28:12.864Z,3.10
2017-10-02T22:30:39.300Z,4.97
2017-10-02T22:33:05.751Z,4.17
2017-10-02T22:35:32.227Z,5.97
2017-10-02T22:37:59.422Z,4.27
2017-10-02T22:40:25.876Z,4.07
2017-10-02T22:42:52.350Z,5.53
2017-10-02T22:45:18.854Z,3.80
2017-10-02T22:47:45.346Z,4.83
2017-10-02T22:50:11.823Z,5.50
2017-10-02T22:52:38.416Z,5.97
2017-10-02T22:55:05.076Z,5.77
2017-10-02T22:57:31.505Z,11.23
2017-10-02T22:59:57.927Z,6.70
2017-10-02T23:02:24.396Z,6.30
2017-10-02T23:04:50.816Z,7.50
2017-10-02T23:07:17.282Z,6.80
2017-10-02T23:09:44.452Z,8.33
2017-10-02T23:12:10.918Z,7.23
2017-10-02T23:14:37.380Z,7.90
2017-10-02T23:17:03.860Z,8.47
2017-10-02T23:19:30.342Z,8.23
2017-10-02T23:21:56.775Z,7.00
2017-10-02T23:24:27.016Z,6.93
2017-10-02T23:26:54.229Z,7.47
2017-10-02T23:29:20.699Z,7.70
2017-10-02T23:31:47.882Z,9.73
2017-10-02T23:34:14.326Z,5.83
2017-10-02T23:36:40.863Z,7.80
2017-10-02T23:39:07.316Z,6.00
2017-10-02T23:41:33.767Z,8.13
2017-10-02T23:44:00.227Z,8.10
2017-10-02T23:46:27.495Z,6.53
2017-10-02T23:48:53.937Z,6.60
2017-10-02T23:51:20.616Z,11.20
2017-10-02T23:53:47.127Z,8.50
2017-10-02T23:56:13.703Z,9.37
2017-10-02T23:58:40.909Z,6.47
